createdAt,value
2022-09-01T00:01:28.383Z,50.88
2022-09-01T00:03:56.043Z,50.42
2022-09-01T00:06:23.887Z,50.68
2022-09-01T00:08:51.416Z,50.73
2022-09-01T00:11:18.761Z,50.58
2022-09-01T00:13:45.471Z,50.71
2022-09-01T00:16:14.153Z,51.22
2022-09-01T00:18:42.373Z,50.92
2022-09-01T00:21:10.182Z,51.28
2022-09-01T00:23:37.369Z,51.26
2022-09-01T00:26:04.918Z,51.20
2022-09-01T00:28:35.661Z,50.98
2022-09-01T00:31:02.969Z,51.41
2022-09-01T00:33:29.484Z,51.58
2022-09-01T00:35:56.360Z,51.33
2022-09-01T00:38:22.852Z,51.42
2022-09-01T00:40:50.039Z,51.65
2022-09-01T00:43:22.757Z,51.54
2022-09-01T00:45:51.842Z,51.45
2022-09-01T00:48:20.403Z,51.40
2022-09-01T00:50:49.530Z,51.58
2022-09-01T00:53:19.209Z,51.52
2022-09-01T00:55:45.787Z,51.98
2022-09-01T00:58:18.343Z,51.51
2022-09-01T01:00:49.637Z,51.55
2022-09-01T01:03:16.217Z,51.89
2022-09-01T01:05:46.715Z,52.14
2022-09-01T01:08:13.217Z,52.22
2022-09-01T01:10:42.195Z,52.73
2022-09-01T01:13:10.266Z,52.59
2022-09-01T01:15:36.934Z,52.81
2022-09-01T01:18:03.504Z,52.93
2022-09-01T01:20:50.339Z,52.93
2022-09-01T01:23:37.165Z,53.12
2022-09-01T01:26:05.470Z,53.04
2022-09-01T01:28:34.011Z,53.41
2022-09-01T01:31:23.028Z,53.79
2022-09-01T01:33:54.861Z,54.09
2022-09-01T01:36:27.041Z,54.24
2022-09-01T01:38:55.527Z,54.39
2022-09-01T01:41:24.165Z,54.31
2022-09-01T01:43:51.044Z,54.35
2022-09-01T01:46:19.090Z,54.50
2022-09-01T01:48:47.098Z,54.49
2022-09-01T01:51:17.483Z,54.97
2022-09-01T01:53:45.204Z,54.57
2022-09-01T01:56:11.687Z,54.92
2022-09-01T01:58:40.479Z,55.36
2022-09-01T02:01:12.583Z,55.50
2022-09-01T02:03:39.844Z,55.63
2022-09-01T02:06:10.152Z,55.49
2022-09-01T02:08:38.305Z,55.94
2022-09-01T02:11:06.065Z,55.90
2022-09-01T02:13:32.710Z,56.81
2022-09-01T02:16:01.108Z,55.98
2022-09-01T02:18:37.709Z,56.36
2022-09-01T02:21:12.772Z,56.28
2022-09-01T02:23:41.861Z,56.62
2022-09-01T02:26:18.515Z,56.29
2022-09-01T02:28:55.797Z,55.61
2022-09-01T02:31:27.875Z,55.59
2022-09-01T02:33:55.071Z,56.07
2022-09-01T02:36:22.299Z,55.88
2022-09-01T02:38:53.169Z,56.02
2022-09-01T02:41:23.035Z,56.03
2022-09-01T02:43:50.151Z,56.38
2022-09-01T02:46:16.867Z,56.43
2022-09-01T02:48:46.108Z,56.47
2022-09-01T02:51:15.574Z,56.47
2022-09-01T02:53:43.594Z,56.70
2022-09-01T02:56:14.123Z,57.00
2022-09-01T02:58:46.329Z,56.83
2022-09-01T03:01:15.015Z,57.15
2022-09-01T03:03:41.704Z,56.84
2022-09-01T03:06:10.203Z,57.08
2022-09-01T03:08:39.613Z,57.08
2022-09-01T03:11:13.270Z,56.94
2022-09-01T03:13:40.856Z,56.82
2022-09-01T03:16:08.163Z,56.86
2022-09-01T03:18:34.956Z,56.76
2022-09-01T03:21:02.429Z,57.34
2022-09-01T03:23:31.369Z,57.11
2022-09-01T03:25:58.379Z,56.73
2022-09-01T03:28:25.379Z,57.38
2022-09-01T03:30:55.574Z,57.39
2022-09-01T03:33:23.196Z,56.82
2022-09-01T03:35:50.033Z,57.45
2022-09-01T03:38:23.099Z,57.23
2022-09-01T03:40:52.719Z,56.93
2022-09-01T03:43:23.334Z,57.08
2022-09-01T03:45:49.986Z,57.14
2022-09-01T03:48:17.142Z,56.68
2022-09-01T03:50:47.144Z,56.49
2022-09-01T03:53:15.640Z,56.40
2022-09-01T03:55:45.074Z,56.66
2022-09-01T03:58:14.444Z,56.58
2022-09-01T04:00:48.784Z,56.38
2022-09-01T04:03:28.546Z,56.89
2022-09-01T04:05:55.895Z,56.16
2022-09-01T04:08:32.542Z,56.91
2022-09-01T04:11:00.691Z,56.99
2022-09-01T04:13:30.402Z,57.33
2022-09-01T04:15:57.652Z,57.16
2022-09-01T04:18:24.877Z,56.47
2022-09-01T04:20:56.822Z,57.10
2022-09-01T04:23:26.607Z,57.00
2022-09-01T04:25:56.569Z,56.58
2022-09-01T04:28:26.248Z,56.86
2022-09-01T04:30:55.887Z,57.03
2022-09-01T04:33:34.855Z,57.60
2022-09-01T04:36:02.857Z,57.61
2022-09-01T04:38:30.586Z,57.30
2022-09-01T04:41:00.070Z,57.43
2022-09-01T04:43:26.587Z,57.51
2022-09-01T04:45:53.782Z,57.74
2022-09-01T04:48:22.099Z,58.23
2022-09-01T04:50:51.945Z,58.16
2022-09-01T04:53:25.025Z,58.19
2022-09-01T04:55:55.397Z,57.84
2022-09-01T04:58:24.629Z,58.19
2022-09-01T05:00:55.904Z,58.35
2022-09-01T05:03:24.269Z,57.57
2022-09-01T05:06:17.604Z,57.55
2022-09-01T05:08:49.836Z,58.41
2022-09-01T05:11:37.539Z,57.85
2022-09-01T05:14:10.217Z,58.42
2022-09-01T05:16:37.788Z,58.34
2022-09-01T05:19:04.702Z,57.60
2022-09-01T05:21:37.629Z,58.06
2022-09-01T05:24:05.063Z,57.80
2022-09-01T05:26:34.609Z,57.18
2022-09-01T05:29:03.143Z,57.30
2022-09-01T05:31:37.836Z,57.12
2022-09-01T05:34:04.947Z,56.99
2022-09-01T05:36:33.288Z,56.47
2022-09-01T05:39:00.848Z,56.49
2022-09-01T05:41:28.475Z,56.58
2022-09-01T05:43:59.978Z,56.46
2022-09-01T05:46:28.186Z,55.43
2022-09-01T05:48:55.928Z,55.48
2022-09-01T05:51:43.379Z,54.69
2022-09-01T05:54:12.119Z,54.64
2022-09-01T05:56:43.631Z,53.95
2022-09-01T05:59:23.579Z,53.81
2022-09-01T06:01:52.908Z,53.25
2022-09-01T06:04:19.920Z,53.12
2022-09-01T06:07:06.573Z,53.04
2022-09-01T06:09:38.114Z,52.42
2022-09-01T06:12:06.530Z,52.20
2022-09-01T06:14:33.234Z,52.29
2022-09-01T06:17:00.943Z,52.21
2022-09-01T06:19:27.491Z,52.41
2022-09-01T06:21:56.779Z,52.52
2022-09-01T06:24:23.573Z,52.52
2022-09-01T06:26:51.013Z,52.50
2022-09-01T06:29:17.665Z,52.70
2022-09-01T06:31:51.744Z,52.07
2022-09-01T06:34:19.660Z,51.79
2022-09-01T06:36:48.444Z,51.57
2022-09-01T06:39:19.898Z,50.91
2022-09-01T06:41:53.122Z,50.42
2022-09-01T06:44:24.642Z,50.21
2022-09-01T06:46:59.896Z,50.12
2022-09-01T06:49:33.217Z,49.74
2022-09-01T06:52:01.300Z,49.34
2022-09-01T06:54:29.818Z,49.25
2022-09-01T06:56:57.535Z,48.83
2022-09-01T06:59:34.461Z,48.60
2022-09-01T07:02:04.829Z,48.39
2022-09-01T07:05:02.809Z,48.16
2022-09-01T07:14:14.519Z,48.11
2022-09-01T07:19:15.067Z,47.77
2022-09-01T07:22:08.243Z,48.10
2022-09-01T07:24:37.648Z,48.34
2022-09-01T07:27:50.602Z,47.53
2022-09-01T07:44:47.291Z,45.84
2022-09-01T07:47:55.462Z,46.03
2022-09-01T07:51:34.145Z,45.46
2022-09-01T07:53:12.629Z,45.29
2022-09-01T07:55:41.305Z,45.71
2022-09-01T07:58:09.506Z,45.37
2022-09-01T08:00:37.155Z,44.89
2022-09-01T08:03:07.075Z,44.75
2022-09-01T08:05:33.873Z,44.87
2022-09-01T08:08:01.476Z,45.23
2022-09-01T08:10:32.063Z,45.02
2022-09-01T08:12:58.884Z,44.76
2022-09-01T08:18:17.054Z,43.69
2022-09-01T08:20:47.727Z,42.51
2022-09-01T08:23:33.926Z,41.50
2022-09-01T08:26:04.784Z,40.81
2022-09-01T08:28:31.706Z,40.82
2022-09-01T08:31:00.218Z,40.63
2022-09-01T08:33:28.040Z,39.88
2022-09-01T08:35:55.494Z,39.65
2022-09-01T08:38:22.909Z,40.36
2022-09-01T08:40:56.071Z,40.58
2022-09-01T08:43:33.505Z,40.51
2022-09-01T08:46:27.139Z,41.31
2022-09-01T08:52:22.461Z,40.13
2022-09-01T08:54:56.211Z,33.46
2022-09-01T08:57:27.522Z,28.62
2022-09-01T09:00:23.319Z,22.92
2022-09-01T09:02:58.862Z,21.58
2022-09-01T09:05:28.520Z,21.40
2022-09-01T09:08:09.569Z,19.92
2022-09-01T09:10:48.116Z,19.36
2022-09-01T09:13:22.270Z,18.08
2022-09-01T09:15:52.076Z,18.05
2022-09-01T09:18:39.223Z,17.53
2022-09-01T09:21:18.087Z,17.59
2022-09-01T09:23:46.977Z,17.97
2022-09-01T09:26:27.218Z,19.13
2022-09-01T09:29:08.722Z,18.60
2022-09-01T09:33:08.948Z,17.60
2022-09-01T09:38:29.370Z,15.23
2022-09-01T09:41:18.980Z,13.01
2022-09-01T09:44:01.171Z,13.60
2022-09-01T09:46:44.352Z,13.20
2022-09-01T09:49:10.994Z,12.05
2022-09-01T09:51:38.624Z,13.12
2022-09-01T09:54:16.350Z,12.63
2022-09-01T09:56:46.626Z,11.74
2022-09-01T09:59:56.038Z,11.46
2022-09-01T10:02:23.163Z,11.32
2022-09-01T10:04:55.892Z,12.19
2022-09-01T10:07:34.735Z,16.08
2022-09-01T10:10:04.484Z,17.00
2022-09-01T10:12:32.071Z,16.07
2022-09-01T10:15:12.530Z,15.31
2022-09-01T10:17:45.342Z,17.40
2022-09-01T10:20:18.739Z,14.84
2022-09-01T10:22:48.562Z,13.87
2022-09-01T10:25:22.037Z,12.27
2022-09-01T10:27:59.840Z,10.56
2022-09-01T10:30:27.435Z,11.28
2022-09-01T10:33:07.001Z,14.11
2022-09-01T10:35:47.475Z,17.72
2022-09-01T10:38:22.913Z,20.34
2022-09-01T10:41:07.223Z,20.70
2022-09-01T10:43:41.097Z,20.97
2022-09-01T10:46:24.751Z,21.16
2022-09-01T10:49:03.195Z,20.24
2022-09-01T10:51:36.223Z,19.64
2022-09-01T10:54:05.914Z,19.79
2022-09-01T10:56:50.815Z,20.94
2022-09-01T10:59:40.265Z,22.19
2022-09-01T11:02:28.838Z,23.76
2022-09-01T11:04:58.269Z,19.03
2022-09-01T11:07:50.437Z,14.56
2022-09-01T11:10:32.749Z,11.30
2022-09-01T11:13:00.284Z,10.66
2022-09-01T11:15:40.431Z,12.75
2022-09-01T11:18:08.745Z,15.17
2022-09-01T11:20:39.845Z,14.23
2022-09-01T11:23:11.627Z,13.61
2022-09-01T11:25:44.454Z,12.02
2022-09-01T11:28:14.479Z,10.77
2022-09-01T11:30:45.209Z,11.28
2022-09-01T11:33:24.096Z,12.44
2022-09-01T11:35:58.707Z,11.50
2022-09-01T11:38:25.869Z,12.52
2022-09-01T11:40:56.699Z,12.42
2022-09-01T11:43:24.239Z,13.16
2022-09-01T11:45:56.724Z,12.44
2022-09-01T11:48:25.595Z,11.77
2022-09-01T11:50:59.765Z,11.70
2022-09-01T11:53:26.669Z,13.46
2022-09-01T11:55:55.993Z,14.71
2022-09-01T11:58:28.871Z,17.21
2022-09-01T12:00:56.782Z,19.40
2022-09-01T12:03:26.160Z,17.64
2022-09-01T12:06:01.217Z,17.23
2022-09-01T12:08:30.555Z,19.19
2022-09-01T12:11:04.975Z,20.89
2022-09-01T12:13:31.622Z,20.71
2022-09-01T12:16:17.441Z,18.38
2022-09-01T12:18:47.378Z,16.94
2022-09-01T12:21:21.091Z,17.76
2022-09-01T12:23:47.651Z,18.44
2022-09-01T12:26:34.409Z,19.25
2022-09-01T12:29:02.045Z,19.86
2022-09-01T12:31:28.698Z,21.36
2022-09-01T12:33:56.468Z,23.03
2022-09-01T12:36:23.780Z,22.98
2022-09-01T12:38:51.052Z,22.86
2022-09-01T12:41:24.675Z,23.32
2022-09-01T12:43:54.674Z,24.18
2022-09-01T12:46:42.334Z,24.17
2022-09-01T12:49:19.797Z,24.62
2022-09-01T12:51:48.586Z,26.51
2022-09-01T12:54:15.964Z,27.05
2022-09-01T12:56:48.134Z,27.37
2022-09-01T12:59:24.748Z,27.55
2022-09-01T13:02:21.193Z,27.79
2022-09-01T13:04:49.181Z,27.46
2022-09-01T13:07:17.001Z,27.67
2022-09-01T13:09:45.917Z,26.87
2022-09-01T13:12:20.379Z,26.97
2022-09-01T13:14:48.506Z,26.60
2022-09-01T13:17:15.934Z,27.17
2022-09-01T13:19:43.736Z,27.86
2022-09-01T13:22:10.852Z,27.89
2022-09-01T13:24:37.861Z,28.42
2022-09-01T13:27:21.028Z,27.89
2022-09-01T13:29:48.470Z,27.66
2022-09-01T13:32:19.303Z,27.10
2022-09-01T13:34:46.904Z,27.57
2022-09-01T13:37:13.428Z,27.72
2022-09-01T13:39:40.239Z,25.73
2022-09-01T13:42:06.932Z,26.05
2022-09-01T13:44:34.069Z,25.76
2022-09-01T13:47:27.672Z,26.61
2022-09-01T13:52:34.082Z,27.14
2022-09-01T13:55:01.597Z,27.59
2022-09-01T13:57:28.172Z,28.55
2022-09-01T14:00:02.544Z,28.52
2022-09-01T14:02:37.949Z,28.72
2022-09-01T14:05:04.639Z,28.78
2022-09-01T14:07:32.369Z,27.84
2022-09-01T14:09:59.388Z,27.69
2022-09-01T14:12:26.044Z,27.66
2022-09-01T14:17:39.564Z,27.19
2022-09-01T14:20:07.749Z,27.12
2022-09-01T14:22:38.317Z,27.64
2022-09-01T14:25:05.761Z,27.91
2022-09-01T14:27:32.291Z,27.81
2022-09-01T14:29:59.039Z,27.35
2022-09-01T14:32:27.052Z,27.25
2022-09-01T14:34:54.644Z,27.57
2022-09-01T14:37:21.504Z,27.73
2022-09-01T14:39:51.991Z,27.61
2022-09-01T14:42:19.708Z,27.09
2022-09-01T14:44:47.161Z,26.72
2022-09-01T14:47:19.452Z,27.42
2022-09-01T14:49:47.772Z,26.99
2022-09-01T14:52:14.411Z,26.84
2022-09-01T14:54:42.492Z,26.88
2022-09-01T14:59:55.634Z,28.22
2022-09-01T15:02:22.117Z,27.94
2022-09-01T15:04:48.800Z,27.63
2022-09-01T15:07:15.539Z,27.32
2022-09-01T15:09:42.532Z,26.67
2022-09-01T15:12:09.545Z,26.72
2022-09-01T15:14:36.852Z,27.64
2022-09-01T15:17:03.635Z,26.51
2022-09-01T15:19:30.262Z,27.13
2022-09-01T15:21:56.788Z,26.73
2022-09-01T15:24:23.414Z,27.30
2022-09-01T15:26:49.939Z,26.93
2022-09-01T15:29:16.438Z,27.13
2022-09-01T15:31:43.645Z,26.77
2022-09-01T15:34:11.117Z,26.21
2022-09-01T15:36:41.674Z,26.73
2022-09-01T15:39:09.189Z,27.74
2022-09-01T15:41:36.486Z,28.83
2022-09-01T15:44:07.066Z,29.36
2022-09-01T15:46:34.594Z,29.04
2022-09-01T15:49:06.007Z,29.52
2022-09-01T15:51:32.544Z,31.91
2022-09-01T15:54:00.734Z,30.95
2022-09-01T15:56:27.486Z,30.75
2022-09-01T15:59:02.193Z,32.64
2022-09-01T16:01:30.442Z,29.71
2022-09-01T16:03:57.514Z,31.68
2022-09-01T16:06:24.097Z,32.82
2022-09-01T16:08:50.971Z,30.01
2022-09-01T16:11:17.636Z,30.31
2022-09-01T16:13:44.270Z,29.83
2022-09-01T16:16:32.112Z,29.91
2022-09-01T16:19:02.132Z,30.49
2022-09-01T16:21:45.799Z,30.73
2022-09-01T16:24:13.224Z,30.66
2022-09-01T16:26:40.366Z,30.80
2022-09-01T16:29:15.085Z,30.26
2022-09-01T16:31:42.695Z,31.00
2022-09-01T16:34:18.170Z,30.93
2022-09-01T16:37:01.537Z,30.84
2022-09-01T16:39:39.883Z,31.47
2022-09-01T16:42:22.981Z,31.16
2022-09-01T16:44:56.151Z,31.87
2022-09-01T16:47:37.916Z,31.66
2022-09-01T16:50:15.140Z,31.84
2022-09-01T16:53:02.614Z,32.18
2022-09-01T16:55:41.519Z,31.81
2022-09-01T16:58:21.617Z,32.11
2022-09-01T17:00:57.221Z,32.59
2022-09-01T17:03:42.949Z,32.27
2022-09-01T17:06:15.793Z,31.87
2022-09-01T17:08:55.428Z,32.76
2022-09-01T17:11:27.177Z,32.73
2022-09-01T17:13:56.067Z,32.22
2022-09-01T17:16:26.922Z,32.84
2022-09-01T17:18:55.684Z,32.68
2022-09-01T17:21:25.682Z,32.41
2022-09-01T17:23:57.541Z,32.61
2022-09-01T17:26:26.226Z,32.79
2022-09-01T17:29:00.383Z,32.20
2022-09-01T17:31:46.088Z,32.99
2022-09-01T17:34:28.053Z,33.01
2022-09-01T17:37:32.654Z,33.09
2022-09-01T17:39:59.649Z,33.18
2022-09-01T17:42:30.201Z,33.76
2022-09-01T17:45:19.989Z,33.47
2022-09-01T17:47:52.999Z,34.04
2022-09-01T17:50:33.499Z,34.37
2022-09-01T17:53:10.901Z,34.41
2022-09-01T17:55:59.404Z,34.99
2022-09-01T17:58:46.161Z,35.56
2022-09-01T18:01:34.591Z,35.73
2022-09-01T18:04:13.372Z,35.58
2022-09-01T18:06:46.423Z,36.14
2022-09-01T18:09:15.443Z,36.58
2022-09-01T18:11:45.131Z,36.35
2022-09-01T18:14:15.784Z,36.73
2022-09-01T18:16:42.422Z,36.50
2022-09-01T18:19:16.438Z,36.60
2022-09-01T18:21:49.254Z,36.90
2022-09-01T18:24:19.154Z,36.98
2022-09-01T18:26:50.254Z,36.89
2022-09-01T18:29:17.256Z,37.20
2022-09-01T18:32:02.459Z,37.14
2022-09-01T18:34:48.841Z,37.25
2022-09-01T18:37:25.102Z,37.34
2022-09-01T18:40:13.347Z,37.77
2022-09-01T18:42:40.049Z,37.20
2022-09-01T18:45:25.557Z,37.76
2022-09-01T18:48:11.096Z,37.75
2022-09-01T18:51:00.302Z,37.68
2022-09-01T18:53:26.779Z,37.42
2022-09-01T18:56:08.539Z,37.78
2022-09-01T18:58:44.166Z,37.73
2022-09-01T19:01:13.824Z,37.77
2022-09-01T19:03:46.383Z,37.82
2022-09-01T19:06:37.883Z,37.27
2022-09-01T19:09:14.552Z,37.59
2022-09-01T19:11:41.093Z,37.67
2022-09-01T19:17:14.024Z,37.34
2022-09-01T19:19:40.534Z,37.24
2022-09-01T19:22:08.526Z,37.34
2022-09-01T19:24:40.931Z,37.22
2022-09-01T19:27:13.045Z,37.00
2022-09-01T19:29:45.193Z,36.82
2022-09-01T19:32:18.139Z,37.13
2022-09-01T19:34:56.652Z,37.07
2022-09-01T19:37:23.552Z,37.38
2022-09-01T19:39:54.157Z,37.14
2022-09-01T19:42:27.276Z,37.07
2022-09-01T19:44:56.853Z,37.18
2022-09-01T19:47:45.663Z,37.62
2022-09-01T19:50:32.694Z,37.13
2022-09-01T19:53:10.302Z,37.48
2022-09-01T19:55:56.184Z,37.37
2022-09-01T19:58:27.092Z,37.47
2022-09-01T20:00:58.261Z,37.34
2022-09-01T20:03:29.266Z,37.66
2022-09-01T20:06:06.495Z,37.18
2022-09-01T20:08:39.653Z,37.69
2022-09-01T20:11:15.386Z,37.35
2022-09-01T20:13:50.066Z,37.66
2022-09-01T20:16:26.648Z,37.90
2022-09-01T20:19:04.596Z,37.89
2022-09-01T20:21:31.743Z,38.03
2022-09-01T20:24:08.309Z,38.02
2022-09-01T20:26:55.000Z,38.26
2022-09-01T20:29:28.143Z,38.40
2022-09-01T20:31:56.859Z,38.10
2022-09-01T20:34:38.441Z,38.38
2022-09-01T20:37:18.208Z,38.53
2022-09-01T20:40:02.609Z,38.47
2022-09-01T20:42:31.426Z,38.65
2022-09-01T20:45:00.004Z,38.91
2022-09-01T20:47:27.795Z,38.64
2022-09-01T20:49:54.631Z,38.44
2022-09-01T20:52:38.397Z,38.65
2022-09-01T20:55:23.756Z,39.17
2022-09-01T20:57:50.301Z,38.97
2022-09-01T21:00:25.951Z,39.02
2022-09-01T21:03:01.698Z,39.47
2022-09-01T21:05:28.788Z,39.19
2022-09-01T21:08:08.348Z,39.12
2022-09-01T21:10:53.951Z,39.54
2022-09-01T21:13:25.088Z,39.74
2022-09-01T21:16:00.160Z,39.39
2022-09-01T21:18:29.738Z,39.22
2022-09-01T21:21:23.309Z,39.39
2022-09-01T21:23:49.950Z,39.60
2022-09-01T21:26:16.653Z,39.63
2022-09-01T21:28:48.045Z,39.63
2022-09-01T21:31:14.879Z,39.62
2022-09-01T21:33:41.503Z,39.38
2022-09-01T21:36:08.377Z,39.78
2022-09-01T21:38:35.604Z,39.67
2022-09-01T21:41:02.508Z,39.83
2022-09-01T21:43:31.455Z,39.88
2022-09-01T21:45:58.317Z,39.66
2022-09-01T21:48:24.952Z,39.81
2022-09-01T21:50:51.453Z,40.16
2022-09-01T21:53:18.113Z,40.24
2022-09-01T21:55:45.343Z,40.42
2022-09-01T21:58:11.917Z,40.78
2022-09-01T22:00:39.547Z,41.01
2022-09-01T22:03:07.066Z,41.28
2022-09-01T22:05:35.765Z,41.33
2022-09-01T22:08:02.600Z,41.74
2022-09-01T22:10:30.407Z,41.65
2022-09-01T22:12:59.120Z,41.42
2022-09-01T22:15:26.150Z,42.15
2022-09-01T22:17:53.288Z,41.39
2022-09-01T22:20:22.315Z,41.55
2022-09-01T22:22:49.143Z,41.88
2022-09-01T22:25:17.274Z,41.73
2022-09-01T22:27:43.782Z,41.89
2022-09-01T22:30:11.135Z,41.96
2022-09-01T22:32:37.907Z,42.78
2022-09-01T22:35:06.193Z,42.18
2022-09-01T22:37:32.897Z,42.50
2022-09-01T22:39:59.565Z,42.63
2022-09-01T22:42:26.109Z,43.06
2022-09-01T22:44:52.653Z,43.25
2022-09-01T22:47:19.275Z,43.09
2022-09-01T22:49:45.830Z,43.49
2022-09-01T22:52:12.611Z,43.89
2022-09-01T22:54:40.484Z,43.70
2022-09-01T22:57:07.051Z,44.50
2022-09-01T22:59:33.579Z,44.36
2022-09-01T23:02:01.802Z,44.64
2022-09-01T23:04:31.970Z,44.49
2022-09-01T23:06:58.653Z,44.35
2022-09-01T23:09:25.234Z,45.00
2022-09-01T23:11:51.874Z,45.06
2022-09-01T23:14:18.587Z,45.16
2022-09-01T23:16:45.410Z,44.91
2022-09-01T23:19:12.092Z,44.78
2022-09-01T23:21:38.844Z,45.54
2022-09-01T23:24:06.005Z,45.54
2022-09-01T23:26:32.547Z,45.44
2022-09-01T23:28:59.633Z,45.72
2022-09-01T23:31:28.059Z,45.53
2022-09-01T23:33:54.832Z,46.18
2022-09-01T23:36:22.370Z,46.16
2022-09-01T23:38:49.656Z,46.56
2022-09-01T23:41:18.491Z,45.81
2022-09-01T23:43:45.000Z,45.72
2022-09-01T23:46:25.148Z,45.98
2022-09-01T23:48:52.418Z,46.20
2022-09-01T23:51:19.514Z,46.13
2022-09-01T23:53:46.649Z,45.99
2022-09-01T23:56:14.903Z,45.74
2022-09-01T23:58:42.091Z,45.86
